createdAt,value
2023-04-17T00:02:32.000Z,98388.84
2023-04-17T00:05:37.925Z,98382.06
2023-04-17T00:08:44.199Z,98384.47
2023-04-17T00:11:49.844Z,98382.59
2023-04-17T00:14:56.201Z,98380.47
2023-04-17T00:18:04.512Z,98378.63
2023-04-17T00:21:10.856Z,98382.09
2023-04-17T00:24:16.665Z,98370.78
2023-04-17T00:27:22.965Z,98370.78
2023-04-17T00:30:28.498Z,98378.03
2023-04-17T00:33:38.544Z,98373.56
2023-04-17T00:36:44.120Z,98372.63
2023-04-17T00:39:50.497Z,98364.25
2023-04-17T00:42:56.543Z,98376.34
2023-04-17T00:46:03.584Z,98376.69
2023-04-17T00:49:13.828Z,98377.78
2023-04-17T00:52:32.010Z,98381.44
2023-04-17T00:55:41.173Z,98379.03
2023-04-17T00:58:47.767Z,98378.69
2023-04-17T01:01:53.572Z,98379.13
2023-04-17T01:05:02.910Z,98378.41
2023-04-17T01:08:09.017Z,98373.28
2023-04-17T01:11:15.653Z,98370.97
2023-04-17T01:14:21.279Z,98375.31
2023-04-17T01:17:29.338Z,98379.78
2023-04-17T01:20:38.444Z,98379.63
2023-04-17T01:23:52.385Z,98374.53
2023-04-17T01:27:02.165Z,98373.78
2023-04-17T01:30:11.826Z,98369.56
2023-04-17T01:33:24.487Z,98377.56
2023-04-17T01:36:31.951Z,98369.03
2023-04-17T01:39:38.617Z,98361.00
2023-04-17T01:42:47.861Z,98349.59
2023-04-17T01:45:53.406Z,98362.47
2023-04-17T01:49:00.363Z,98363.97
2023-04-17T01:52:05.867Z,98364.81
2023-04-17T01:55:13.586Z,98364.81
2023-04-17T01:58:21.975Z,98361.16
2023-04-17T02:01:28.357Z,98372.41
2023-04-17T02:04:34.397Z,98366.53
2023-04-17T02:07:41.123Z,98364.00
2023-04-17T02:10:46.701Z,98374.25
2023-04-17T02:13:55.868Z,98374.53
2023-04-17T02:17:01.893Z,98378.97
2023-04-17T02:20:14.295Z,98366.53
2023-04-17T02:23:19.791Z,98345.66
2023-04-17T02:26:26.088Z,98374.53
2023-04-17T02:29:34.294Z,98376.25
2023-04-17T02:32:41.397Z,98376.94
2023-04-17T02:35:47.205Z,98371.94
2023-04-17T02:38:53.601Z,98380.72
2023-04-17T02:41:59.140Z,98362.41
2023-04-17T02:45:10.410Z,98379.50
2023-04-17T02:48:15.900Z,98377.31
2023-04-17T02:51:22.438Z,98374.59
2023-04-17T02:54:27.989Z,98376.16
2023-04-17T02:57:35.021Z,98380.44
2023-04-17T03:00:43.654Z,98378.53
2023-04-17T03:03:54.708Z,98386.97
2023-04-17T03:07:00.480Z,98384.03
2023-04-17T03:10:08.946Z,98380.66
2023-04-17T03:13:14.469Z,98386.50
2023-04-17T03:16:23.975Z,98389.19
2023-04-17T03:19:30.000Z,98386.97
2023-04-17T03:22:36.840Z,98390.50
2023-04-17T03:25:45.047Z,98394.94
2023-04-17T03:28:53.054Z,98351.31
2023-04-17T03:32:01.531Z,98399.03
2023-04-17T03:35:08.998Z,98403.66
2023-04-17T03:38:14.820Z,98404.97
2023-04-17T03:41:21.485Z,98393.28
2023-04-17T03:44:28.254Z,98402.63
2023-04-17T03:47:37.391Z,98407.94
2023-04-17T03:50:43.256Z,98412.50
2023-04-17T03:53:50.056Z,98416.56
2023-04-17T03:56:56.088Z,98418.34
2023-04-17T04:00:04.997Z,98432.03
2023-04-17T04:03:26.820Z,98429.22
2023-04-17T04:06:34.039Z,98434.97
2023-04-17T04:09:40.903Z,98433.09
2023-04-17T04:12:48.033Z,98426.94
2023-04-17T04:15:54.816Z,98433.28
2023-04-17T04:19:07.034Z,98429.72
2023-04-17T04:22:13.855Z,98433.50
2023-04-17T04:25:26.792Z,98445.84
2023-04-17T04:28:48.715Z,98438.31
2023-04-17T04:32:01.431Z,98439.88
2023-04-17T04:35:16.068Z,98453.38
2023-04-17T04:38:30.131Z,98454.78
2023-04-17T04:41:46.118Z,98459.66
2023-04-17T04:44:53.681Z,98458.59
2023-04-17T04:48:01.581Z,98453.84
2023-04-17T04:51:12.002Z,98453.38
2023-04-17T04:54:18.942Z,98456.59
2023-04-17T04:57:31.546Z,98459.72
2023-04-17T05:00:39.763Z,98339.31
2023-04-17T05:03:48.674Z,98464.31
2023-04-17T05:07:05.264Z,98450.09
2023-04-17T05:10:14.091Z,98467.53
2023-04-17T05:13:25.172Z,98455.44
2023-04-17T05:16:31.777Z,98453.03
2023-04-17T05:19:38.095Z,98447.38
2023-04-17T05:22:50.891Z,98452.38
2023-04-17T05:25:57.012Z,98451.94
2023-04-17T05:29:03.946Z,98454.91
2023-04-17T05:32:12.024Z,98455.50
2023-04-17T05:35:34.790Z,98459.06
2023-04-17T05:38:45.963Z,98457.63
2023-04-17T05:41:52.536Z,98462.94
2023-04-17T05:44:58.025Z,98465.06
2023-04-17T05:48:04.518Z,98466.81
2023-04-17T05:51:10.130Z,98475.44
2023-04-17T05:54:20.024Z,98475.69
2023-04-17T05:57:27.219Z,98469.00
2023-04-17T06:00:34.369Z,98464.72
2023-04-17T06:03:44.990Z,98468.09
2023-04-17T06:06:57.180Z,98474.50
2023-04-17T06:10:05.879Z,98470.03
2023-04-17T06:13:12.350Z,98471.91
2023-04-17T06:16:22.191Z,98468.38
2023-04-17T06:19:28.787Z,98469.19
2023-04-17T06:22:34.296Z,98466.69
2023-04-17T06:25:43.824Z,98472.94
2023-04-17T06:28:49.317Z,98467.06
2023-04-17T06:31:56.080Z,98474.00
2023-04-17T06:35:01.981Z,98463.97
2023-04-17T06:38:19.024Z,98470.28
2023-04-17T06:41:27.314Z,98466.53
2023-04-17T06:44:33.810Z,98464.38
2023-04-17T06:47:39.810Z,98475.16
2023-04-17T06:50:47.836Z,98478.56
2023-04-17T06:53:53.296Z,98477.97
2023-04-17T06:57:06.738Z,98488.34
2023-04-17T07:00:14.250Z,98482.91
2023-04-17T07:03:20.783Z,98501.19
2023-04-17T07:06:26.948Z,98505.81
2023-04-17T07:09:33.338Z,98499.53
2023-04-17T07:12:41.762Z,98514.53
2023-04-17T07:15:48.183Z,98519.03
2023-04-17T07:18:54.564Z,98521.03
2023-04-17T07:22:00.858Z,98515.06
2023-04-17T07:25:06.664Z,98527.75
2023-04-17T07:28:15.782Z,98523.84
2023-04-17T07:31:22.457Z,98519.69
2023-04-17T07:34:31.354Z,98522.25
2023-04-17T07:37:38.246Z,98515.22
2023-04-17T07:40:44.552Z,98514.13
2023-04-17T07:43:52.817Z,98520.63
2023-04-17T07:46:59.323Z,98518.91
2023-04-17T07:50:04.948Z,98521.69
2023-04-17T07:53:11.320Z,98516.25
2023-04-17T07:56:18.146Z,98522.63
2023-04-17T07:59:27.646Z,98526.03
2023-04-17T08:02:33.272Z,98534.72
2023-04-17T08:05:39.755Z,98534.38
2023-04-17T08:08:47.860Z,98536.50
2023-04-17T08:11:57.895Z,98543.44
2023-04-17T08:15:07.542Z,98524.59
2023-04-17T08:18:14.198Z,98534.50
2023-04-17T08:21:19.723Z,98529.75
2023-04-17T08:24:26.075Z,98530.66
2023-04-17T08:27:32.020Z,98528.22
2023-04-17T08:30:41.141Z,98536.34
2023-04-17T08:33:46.562Z,98533.41
2023-04-17T08:36:52.996Z,98525.53
2023-04-17T08:39:58.459Z,98524.13
2023-04-17T08:43:06.324Z,98525.28
2023-04-17T08:46:15.529Z,98526.81
2023-04-17T08:49:22.287Z,98525.41
2023-04-17T08:52:27.746Z,98523.00
2023-04-17T08:55:34.107Z,98530.56
2023-04-17T08:58:40.174Z,98506.34
2023-04-17T09:02:11.452Z,98535.50
2023-04-17T09:05:23.282Z,98518.97
2023-04-17T09:08:29.842Z,98491.06
2023-04-17T09:11:35.379Z,98522.66
2023-04-17T09:14:41.807Z,98519.81
2023-04-17T09:17:50.817Z,98533.84
2023-04-17T09:20:58.023Z,98534.66
2023-04-17T09:24:03.452Z,98530.09
2023-04-17T09:27:24.253Z,98533.63
2023-04-17T09:30:30.089Z,98533.94
2023-04-17T09:33:39.237Z,98540.66
2023-04-17T09:36:46.515Z,98524.69
2023-04-17T09:40:01.042Z,98526.38
2023-04-17T09:43:10.095Z,98517.50
2023-04-17T09:46:38.752Z,98522.59
2023-04-17T09:49:53.087Z,98507.50
2023-04-17T09:53:00.382Z,98506.81
2023-04-17T09:56:06.469Z,98506.25
2023-04-17T09:59:13.552Z,98502.53
2023-04-17T10:02:21.970Z,98503.38
2023-04-17T10:05:33.299Z,98509.78
2023-04-17T10:08:39.178Z,98507.63
2023-04-17T10:11:49.745Z,98495.09
2023-04-17T10:14:56.224Z,98506.91
2023-04-17T10:18:25.816Z,98512.44
2023-04-17T10:21:35.344Z,98496.56
2023-04-17T10:24:42.088Z,98504.97
2023-04-17T10:27:49.252Z,98507.63
2023-04-17T10:30:58.920Z,98507.25
2023-04-17T10:34:04.665Z,98499.19
2023-04-17T10:37:15.673Z,98504.97
2023-04-17T10:40:23.957Z,98506.19
2023-04-17T10:43:30.474Z,98503.75
2023-04-17T10:46:36.080Z,98504.47
2023-04-17T10:49:59.040Z,98499.88
2023-04-17T10:53:08.178Z,98504.47
2023-04-17T10:56:21.444Z,98491.94
2023-04-17T10:59:30.354Z,98506.13
2023-04-17T11:02:37.690Z,98502.53
2023-04-17T11:05:49.133Z,98502.78
2023-04-17T11:09:00.166Z,98491.72
2023-04-17T11:12:05.711Z,98496.75
2023-04-17T11:15:13.171Z,98511.66
2023-04-17T11:18:19.078Z,98509.81
2023-04-17T11:21:26.742Z,98523.50
2023-04-17T11:24:35.778Z,98511.44
2023-04-17T11:27:42.719Z,98535.16
2023-04-17T11:30:48.311Z,98512.66
2023-04-17T11:33:55.124Z,98522.44
2023-04-17T11:37:03.883Z,98529.28
2023-04-17T11:40:14.215Z,98515.09
2023-04-17T11:43:21.032Z,98535.69
2023-04-17T11:46:27.476Z,98545.91
2023-04-17T11:49:40.813Z,98543.09
2023-04-17T11:52:47.875Z,98536.78
2023-04-17T11:56:16.462Z,98531.53
2023-04-17T11:59:34.872Z,98541.66
2023-04-17T12:02:41.057Z,98529.09
2023-04-17T12:06:02.916Z,98537.44
2023-04-17T12:09:09.148Z,98526.34
2023-04-17T12:12:19.117Z,98532.34
2023-04-17T12:15:24.589Z,98533.72
2023-04-17T12:18:30.863Z,98522.75
2023-04-17T12:21:36.454Z,98541.81
2023-04-17T12:24:42.816Z,98535.38
2023-04-17T12:27:51.152Z,98534.66
2023-04-17T12:30:57.560Z,98538.88
2023-04-17T12:34:03.038Z,98539.59
2023-04-17T12:37:09.424Z,98539.00
2023-04-17T12:40:15.375Z,98548.97
2023-04-17T12:43:24.586Z,98536.91
2023-04-17T12:46:30.343Z,98543.56
2023-04-17T12:49:37.205Z,98542.72
2023-04-17T12:52:43.563Z,98540.81
2023-04-17T12:55:49.981Z,98523.94
2023-04-17T12:59:00.610Z,98531.31
2023-04-17T13:02:08.592Z,98530.03
2023-04-17T13:05:14.327Z,98537.03
2023-04-17T13:08:20.675Z,98522.88
2023-04-17T13:11:26.631Z,98533.44
2023-04-17T13:14:35.790Z,98526.88
2023-04-17T13:17:41.371Z,98531.06
2023-04-17T13:20:48.020Z,98528.25
2023-04-17T13:23:53.579Z,98521.31
2023-04-17T13:27:01.813Z,98519.63
2023-04-17T13:30:12.030Z,98528.06
2023-04-17T13:33:18.843Z,98523.50
2023-04-17T13:36:24.584Z,98526.34
2023-04-17T13:39:31.313Z,98531.63
2023-04-17T13:42:36.868Z,98526.13
2023-04-17T13:45:46.586Z,98532.69
2023-04-17T13:48:52.117Z,98531.19
2023-04-17T13:51:58.920Z,98523.06
2023-04-17T13:55:04.650Z,98530.28
2023-04-17T13:58:11.171Z,98529.88
2023-04-17T14:01:19.458Z,98535.31
2023-04-17T14:04:26.090Z,98537.38
2023-04-17T14:07:31.903Z,98536.00
2023-04-17T14:10:38.446Z,98524.69
2023-04-17T14:13:44.138Z,98539.66
2023-04-17T14:16:53.363Z,98537.75
2023-04-17T14:19:59.092Z,98534.06
2023-04-17T14:23:05.616Z,98481.50
2023-04-17T14:26:11.213Z,98528.63
2023-04-17T14:29:17.616Z,98530.88
2023-04-17T14:32:26.083Z,98527.38
2023-04-17T14:35:33.192Z,98525.81
2023-04-17T14:38:39.144Z,98533.16
2023-04-17T14:41:45.554Z,98535.22
2023-04-17T14:44:51.133Z,98529.91
2023-04-17T14:48:01.102Z,98526.94
2023-04-17T14:51:10.360Z,98519.69
2023-04-17T14:54:16.785Z,98521.56
2023-04-17T14:57:22.373Z,98522.97
2023-04-17T15:00:28.765Z,98522.88
2023-04-17T15:03:37.191Z,98538.03
2023-04-17T15:06:43.633Z,98524.22
2023-04-17T15:09:49.771Z,98536.38
2023-04-17T15:13:00.489Z,98540.59
2023-04-17T15:16:06.527Z,98531.63
2023-04-17T15:19:15.930Z,98530.28
2023-04-17T15:22:21.503Z,98541.25
2023-04-17T15:25:28.339Z,98522.47
2023-04-17T15:28:34.271Z,98538.59
2023-04-17T15:31:41.430Z,98533.25
2023-04-17T15:34:49.767Z,98533.13
2023-04-17T15:37:56.110Z,98530.28
2023-04-17T15:41:03.795Z,98531.53
2023-04-17T15:44:10.209Z,98530.56
2023-04-17T15:47:15.730Z,98526.78
2023-04-17T15:50:25.847Z,98539.09
2023-04-17T15:53:31.285Z,98533.00
2023-04-17T15:56:37.630Z,98529.81
2023-04-17T15:59:43.138Z,98540.56
2023-04-17T16:02:50.033Z,98536.97
2023-04-17T16:05:58.920Z,98531.88
2023-04-17T16:09:05.847Z,98537.50
2023-04-17T16:12:14.007Z,98539.41
2023-04-17T16:15:21.362Z,98530.75
2023-04-17T16:18:27.123Z,98540.63
2023-04-17T16:21:36.776Z,98543.94
2023-04-17T16:24:42.260Z,98533.91
2023-04-17T16:27:48.589Z,98534.94
2023-04-17T16:30:54.121Z,98538.69
2023-04-17T16:34:00.747Z,98529.31
2023-04-17T16:37:09.472Z,98532.25
2023-04-17T16:40:18.155Z,98547.22
2023-04-17T16:43:23.652Z,98543.72
2023-04-17T16:46:40.169Z,98546.66
2023-04-17T16:49:56.024Z,98556.91
2023-04-17T16:53:05.411Z,98544.56
2023-04-17T16:56:11.936Z,98544.78
2023-04-17T16:59:19.111Z,98552.38
2023-04-17T17:02:24.715Z,98554.44
2023-04-17T17:05:31.083Z,98558.69
2023-04-17T17:08:39.444Z,98568.47
2023-04-17T17:11:45.930Z,98562.47
2023-04-17T17:14:51.389Z,98564.97
2023-04-17T17:17:57.854Z,98566.88
2023-04-17T17:21:05.096Z,98567.91
2023-04-17T17:24:14.195Z,98564.53
2023-04-17T17:27:20.067Z,98567.06
2023-04-17T17:30:26.990Z,98574.03
2023-04-17T17:33:33.729Z,98580.34
2023-04-17T17:36:40.439Z,98579.03
2023-04-17T17:39:48.747Z,98585.44
2023-04-17T17:42:55.122Z,98577.34
2023-04-17T17:46:00.698Z,98579.44
2023-04-17T17:49:07.645Z,98581.09
2023-04-17T17:52:13.498Z,98585.50
2023-04-17T17:55:22.892Z,98579.81
2023-04-17T17:58:30.899Z,98589.28
2023-04-17T18:01:37.624Z,98595.78
2023-04-17T18:04:43.286Z,98590.69
2023-04-17T18:07:49.756Z,98598.78
2023-04-17T18:10:58.089Z,98592.97
2023-04-17T18:14:04.461Z,98593.44
2023-04-17T18:17:10.266Z,98596.56
2023-04-17T18:20:17.060Z,98597.09
2023-04-17T18:23:22.909Z,98602.50
2023-04-17T18:26:32.473Z,98603.31
2023-04-17T18:29:37.926Z,98601.31
2023-04-17T18:32:44.403Z,98598.78
2023-04-17T18:35:49.971Z,98601.16
2023-04-17T18:38:56.444Z,98615.59
2023-04-17T18:42:04.817Z,98609.97
2023-04-17T18:45:15.376Z,98599.44
2023-04-17T18:48:21.156Z,98604.81
2023-04-17T18:51:27.629Z,98607.28
2023-04-17T18:54:33.161Z,98607.00
2023-04-17T18:57:43.041Z,98607.00
2023-04-17T19:00:48.597Z,98610.75
2023-04-17T19:03:55.062Z,98601.53
2023-04-17T19:07:02.959Z,98609.59
2023-04-17T19:10:11.077Z,98607.88
2023-04-17T19:13:19.374Z,98612.13
2023-04-17T19:16:26.271Z,98610.63
2023-04-17T19:19:31.863Z,98630.72
2023-04-17T19:22:38.995Z,98612.00
2023-04-17T19:25:44.858Z,98609.94
2023-04-17T19:28:54.096Z,98607.31
2023-04-17T19:31:59.819Z,98612.56
2023-04-17T19:35:06.636Z,98620.81
2023-04-17T19:38:12.650Z,98613.88
2023-04-17T19:41:22.307Z,98617.25
2023-04-17T19:44:30.868Z,98613.00
2023-04-17T19:47:37.585Z,98611.41
2023-04-17T19:50:43.177Z,98606.09
2023-04-17T19:53:50.479Z,98603.25
2023-04-17T19:56:55.934Z,98611.34
2023-04-17T20:00:05.121Z,98608.50
2023-04-17T20:03:18.192Z,98604.69
2023-04-17T20:06:24.722Z,98597.75
2023-04-17T20:09:31.897Z,98603.53
2023-04-17T20:12:38.310Z,98602.03
2023-04-17T20:15:46.664Z,98593.63
2023-04-17T20:18:53.077Z,98595.91
2023-04-17T20:21:58.613Z,98600.03
2023-04-17T20:25:05.108Z,98594.84
2023-04-17T20:28:10.550Z,98591.00
2023-04-17T20:31:19.808Z,98604.94
2023-04-17T20:34:25.406Z,98592.72
2023-04-17T20:37:32.271Z,98598.06
2023-04-17T20:40:37.860Z,98593.75
2023-04-17T20:43:44.317Z,98602.31
2023-04-17T20:46:52.558Z,98591.69
2023-04-17T20:49:58.891Z,98585.41
2023-04-17T20:53:04.941Z,98590.78
2023-04-17T20:56:11.559Z,98595.78
2023-04-17T20:59:17.038Z,98609.00
2023-04-17T21:02:26.371Z,98596.72
2023-04-17T21:05:31.856Z,98604.25
2023-04-17T21:08:38.265Z,98598.69
2023-04-17T21:11:43.852Z,98608.34
2023-04-17T21:14:50.213Z,98609.53
2023-04-17T21:17:59.029Z,98604.75
2023-04-17T21:21:05.506Z,98606.47
2023-04-17T21:24:12.670Z,98604.88
2023-04-17T21:27:19.313Z,98613.94
2023-04-17T21:30:27.321Z,98593.59
2023-04-17T21:33:36.858Z,98596.88
2023-04-17T21:36:42.322Z,98599.88
2023-04-17T21:39:49.208Z,98590.88
2023-04-17T21:42:54.790Z,98591.25
2023-04-17T21:46:01.692Z,98601.34
2023-04-17T21:49:10.021Z,98591.34
2023-04-17T21:52:16.502Z,98591.16
2023-04-17T21:55:22.121Z,98593.03
2023-04-17T21:58:28.726Z,98600.38
2023-04-17T22:01:34.437Z,98601.69
2023-04-17T22:04:43.677Z,98592.63
2023-04-17T22:07:55.008Z,98598.53
2023-04-17T22:11:01.909Z,98594.91
2023-04-17T22:14:07.358Z,98597.34
2023-04-17T22:17:13.708Z,98595.50
2023-04-17T22:20:22.979Z,98592.59
2023-04-17T22:23:29.323Z,98598.72
2023-04-17T22:26:35.136Z,98591.41
2023-04-17T22:29:41.484Z,98600.06
2023-04-17T22:32:47.034Z,98594.63
2023-04-17T22:35:56.247Z,98593.63
2023-04-17T22:39:01.756Z,98599.38
2023-04-17T22:42:08.442Z,98589.84
2023-04-17T22:45:14.131Z,98587.88
2023-04-17T22:48:22.159Z,98595.00
2023-04-17T22:51:32.220Z,98588.47
2023-04-17T22:54:38.850Z,98583.41
2023-04-17T22:57:44.888Z,98594.84
2023-04-17T23:00:51.226Z,98587.72
2023-04-17T23:03:56.924Z,98588.72
2023-04-17T23:07:06.067Z,98586.97
2023-04-17T23:10:13.101Z,98587.22
2023-04-17T23:13:19.438Z,98593.53
2023-04-17T23:16:24.921Z,98590.16
2023-04-17T23:19:31.502Z,98574.50
2023-04-17T23:22:39.797Z,98586.84
2023-04-17T23:25:46.403Z,98576.19
2023-04-17T23:28:51.905Z,98576.19
2023-04-17T23:31:58.220Z,98578.75
2023-04-17T23:35:03.935Z,98575.34
2023-04-17T23:38:13.536Z,98576.63
2023-04-17T23:41:19.054Z,98568.16
2023-04-17T23:44:25.427Z,98561.56
2023-04-17T23:47:30.877Z,98569.28
2023-04-17T23:50:37.635Z,98566.38
2023-04-17T23:53:46.126Z,98563.75
2023-04-17T23:56:52.538Z,98564.84
2023-04-17T23:59:58.162Z,98572.50
